Sisseton, SD

8:09 AM CDT on March 30, 2015 (GMT -0500)
Wheaton Municipal | | Change Station
CLOSE
Current Station
Airport
Location: Wheaton NDB,
Elevation: 1024 ft
Nearby Weather Stations
Active Advisory: Fire Weather Warning

Elev 1024 ft 45.78 °N, 96.54 °W | Updated 14 minutes ago

Mostly Cloudy
Mostly Cloudy
34 °F
Feels Like 29 °F
N
6
Wind Variable Wind from SE

Today
High -- | Low -- °F
--% Chance of Precip.
Yesterday
High -- | Low -- °F
Precip. -- in
7:12 AM 7:53 PM
Waxing Gibbous, 79% visible
Pressure 29.91 in
Visibility 10.0 miles
Clouds Overcast 10000 ft
Windchill 29 °F
Dew Point 28 °F
Humidity 81%
Rainfall 0.00 in
Snow Depth Not available.
UV 0 out of 12
Pollen 2.90 out of 12
Air Quality Not available.
Flu Activity Not available.
METAR KETH 301255Z AUTO 14005KT 10SM OVC100 01/M02 A2991 RMK AO2

More Conditions Fewer Conditions

Pressure 29.91 in
Visibility 10.0 miles
Clouds Overcast 10000 ft
Windchill 29 °F
Dew Point 28 °F
Humidity 81%
Rainfall 0.00 in
Snow Depth Not available.
UV 0 out of 12
Pollen 2.90 out of 12
Air Quality Not available.
Flu Activity Not available.
METAR KETH 301255Z AUTO 14005KT 10SM OVC100 01/M02 A2991 RMK AO2

More Conditions Fewer Conditions

10-Day Weather Forecast

Almanac

Astronomy

Mar. 30, 2015 Rise Set
Actual Time
Civil Twilight
Nautical Twilight
Astronomical Twilight
Moon
Length of Visible Light
Length of Day
Tomorrow will be .
, % of the Moon is Illuminated

Today's Extremes

State Highs State Lows

Community

WunderPhotos

Upload Photos

1,809,484 photos uploaded!

WunderBlogs® & News

Nearby

Air Quality

  Air Quality AQ Index Pollutant
Not available.

Snow Depth

Station Depth Elevation

Earthquake Activity

City Distance Mag. Time & Date
Minimum magnitude displayed is 2.5.

Coastal Water Temperatures

Place Temperature

Stations

Nearby Weather Stations

Station Location Temp. Windchill Dew Point Humidity Wind Precip. Elev Updated Type
                   
Fire Weather Warning
Statement as of 3:00 AM MDT on March 30, 2015

... Red flag warning in effect from noon CDT /11 am MDT/ today to
8 PM CDT /7 PM MDT/ this evening for wind and low relative
humidity for fire weather zones 267... 268... 269... 270... 271 and
272...

The National Weather Service in Aberdeen has issued a red flag
warning for wind and low relative humidity... which is in effect
from noon CDT /11 am MDT/ today to 8 PM CDT /7 PM MDT/ this
evening.

* Affected area... in South Dakota... fire weather zones 267...
268... 269... 270... 271 and 272.

* Winds... northwest 20 to 25 mph with gusts up to 35 mph.

* Relative humidity... 15 to 25 percent.

* Impacts... fires could spread very quickly due to dead fuels... gusty
winds and low relative humidity.

Precautionary/preparedness actions...

A red flag warning means that critical fire weather conditions
are either occurring now... or will shortly. A combination of
strong winds... low relative humidity... and warm temperatures can
contribute to extreme fire behavior.



Serr